Time;durP1;ratioP1;P1;durP2;ratioP2;P2;SDS_P1;SDS_P2;PMS_P1;PMS_P2;Temp;Humidity;BMP_temperature;BMP_pressure;BME280_temperature;BME280_humidity;BME280_pressure;Samples;Min_cycle;Max_cycle;Signal;HPM_P1;HPM_P2
2022/03/05 00:00:38;;;;;;;63.85;20.25;;;8.70;66.30;;;;;;5021216;28;20088;-63
2022/03/05 00:03:04;;;;;;;66.70;20.15;;;8.70;66.40;;;;;;5003058;28;20545;-63
2022/03/05 00:05:30;;;;;;;70.00;20.98;;;8.60;66.30;;;;;;5021485;28;20033;-62
2022/03/05 00:07:55;;;;;;;72.40;21.70;;;8.60;66.40;;;;;;5023009;28;20045;-61
2022/03/05 00:10:21;;;;;;;54.50;19.02;;;8.60;66.30;;;;;;5010268;28;20034;-61
2022/03/05 00:12:48;;;;;;;74.57;20.30;;;8.60;66.50;;;;;;5021672;28;20496;-63
2022/03/05 00:15:13;;;;;;;80.00;18.83;;;8.50;66.60;;;;;;5021950;28;20342;-63
2022/03/05 00:17:39;;;;;;;58.33;18.67;;;8.50;66.60;;;;;;5004855;28;20371;-61
2022/03/05 00:20:05;;;;;;;69.25;19.83;;;8.50;66.60;;;;;;5021529;28;20136;-61
2022/03/05 00:22:31;;;;;;;64.32;19.10;;;8.50;66.70;;;;;;5020975;28;20091;-62
2022/03/05 00:24:56;;;;;;;67.50;18.92;;;8.40;66.60;;;;;;5022556;28;20021;-63
2022/03/05 00:27:22;;;;;;;58.10;18.25;;;8.40;66.80;;;;;;5022599;28;20714;-63
2022/03/05 00:29:47;;;;;;;65.28;18.65;;;8.40;66.80;;;;;;5020439;28;20556;-63
2022/03/05 00:32:13;;;;;;;59.08;18.40;;;8.40;66.90;;;;;;5022785;28;20661;-61
2022/03/05 00:34:38;;;;;;;74.75;20.52;;;8.40;66.90;;;;;;4986410;28;20046;-61
2022/03/05 00:37:05;;;;;;;65.20;19.75;;;8.40;66.90;;;;;;5003164;28;20050;-63
2022/03/05 00:39:31;;;;;;;62.67;18.83;;;8.30;66.80;;;;;;5022970;28;20076;-62
2022/03/05 00:41:57;;;;;;;58.53;19.45;;;8.30;66.60;;;;;;5003832;28;20090;-63
2022/03/05 00:44:22;;;;;;;56.20;18.17;;;8.30;66.80;;;;;;5022691;28;20261;-63
2022/03/05 00:46:47;;;;;;;55.65;18.33;;;8.30;66.90;;;;;;5019145;28;20057;-63
2022/03/05 00:49:13;;;;;;;66.13;20.17;;;8.20;66.80;;;;;;5021892;28;20494;-62
2022/03/05 00:51:39;;;;;;;60.90;18.83;;;8.20;66.80;;;;;;5021657;28;20037;-61
2022/03/05 00:54:04;;;;;;;55.63;18.15;;;8.20;67.00;;;;;;5022315;28;20172;-63
2022/03/05 00:56:30;;;;;;;58.60;18.42;;;8.10;66.90;;;;;;5022761;28;20033;-61
2022/03/05 00:58:55;;;;;;;58.97;17.92;;;8.20;67.00;;;;;;5020267;28;20653;-63
2022/03/05 01:01:21;;;;;;;52.60;21.58;;;8.10;66.90;;;;;;5020001;28;20034;-63
2022/03/05 01:03:46;;;;;;;54.95;20.27;;;8.10;66.80;;;;;;5021608;28;20511;-61
2022/03/05 01:06:12;;;;;;;54.83;18.80;;;8.10;66.80;;;;;;5022417;28;20060;-61
2022/03/05 01:08:38;;;;;;;48.97;18.40;;;8.10;66.80;;;;;;5003988;28;20478;-62
2022/03/05 01:11:04;;;;;;;43.13;17.20;;;8.00;66.70;;;;;;5021841;28;20032;-61
2022/03/05 01:13:30;;;;;;;52.25;19.38;;;8.00;66.80;;;;;;5019598;28;20046;-63
2022/03/05 01:15:55;;;;;;;43.05;17.60;;;8.00;66.90;;;;;;5020252;28;20079;-61
2022/03/05 01:18:21;;;;;;;49.42;18.73;;;8.00;67.00;;;;;;5020272;28;20048;-65
2022/03/05 01:20:46;;;;;;;48.15;18.48;;;8.00;67.00;;;;;;5003611;28;20022;-62
2022/03/05 01:23:12;;;;;;;49.92;19.08;;;8.00;66.90;;;;;;5021122;28;20982;-63
2022/03/05 01:25:38;;;;;;;48.60;18.13;;;7.90;67.00;;;;;;5021780;28;20108;-60
2022/03/05 01:28:03;;;;;;;48.92;17.80;;;7.90;67.30;;;;;;5020690;28;20215;-63
2022/03/05 01:30:29;;;;;;;44.55;17.85;;;7.90;67.70;;;;;;5020180;28;20158;-60
2022/03/05 01:32:54;;;;;;;43.20;16.92;;;7.80;67.90;;;;;;5019950;28;20028;-62
2022/03/05 01:35:20;;;;;;;46.80;17.38;;;7.80;68.80;;;;;;5019170;28;20028;-62
2022/03/05 01:37:46;;;;;;;38.08;16.50;;;7.80;68.30;;;;;;5018820;28;20509;-62
2022/03/05 01:40:11;;;;;;;40.03;17.67;;;7.80;68.50;;;;;;5021580;28;20048;-60
2022/03/05 01:42:37;;;;;;;38.25;16.73;;;7.80;68.70;;;;;;5021832;28;20499;-61
2022/03/05 01:45:03;;;;;;;42.90;16.63;;;7.80;68.70;;;;;;5019895;28;20493;-63
2022/03/05 01:47:29;;;;;;;41.38;17.55;;;7.70;68.80;;;;;;5018955;28;20041;-62
2022/03/05 01:49:54;;;;;;;44.33;17.90;;;7.70;68.60;;;;;;5020811;28;20033;-64
2022/03/05 01:52:20;;;;;;;38.17;17.15;;;7.70;68.90;;;;;;5015697;28;20409;-63
2022/03/05 01:54:45;;;;;;;43.08;17.63;;;7.70;68.80;;;;;;5020679;28;20373;-60
2022/03/05 01:57:11;;;;;;;41.20;17.80;;;7.70;69.00;;;;;;5016350;28;20566;-62
2022/03/05 01:59:37;;;;;;;33.88;17.65;;;7.70;69.20;;;;;;4995485;28;20018;-60
2022/03/05 02:02:02;;;;;;;37.92;17.52;;;7.70;69.30;;;;;;5003798;28;20041;-61
2022/03/05 02:04:28;;;;;;;35.17;16.80;;;7.60;69.00;;;;;;5023049;28;20494;-62
2022/03/05 02:06:53;;;;;;;42.45;17.80;;;7.60;69.40;;;;;;5021665;28;20112;-62
2022/03/05 02:09:19;;;;;;;35.92;18.17;;;7.60;69.10;;;;;;5018221;28;20041;-62
2022/03/05 02:11:45;;;;;;;40.60;17.10;;;7.60;69.10;;;;;;5017354;28;20133;-62
2022/03/05 02:14:10;;;;;;;38.92;16.20;;;7.60;69.20;;;;;;5014633;28;20449;-61
2022/03/05 02:16:36;;;;;;;28.13;16.02;;;7.60;69.20;;;;;;4999602;28;20056;-61
2022/03/05 02:19:03;;;;;;;36.80;16.10;;;7.60;69.20;;;;;;5016782;28;20068;-62
2022/03/05 02:21:29;;;;;;;40.45;17.10;;;7.60;69.10;;;;;;5016197;28;20044;-60
2022/03/05 02:23:55;;;;;;;31.20;16.15;;;7.60;69.00;;;;;;5015836;28;20025;-60
2022/03/05 02:26:22;;;;;;;38.75;17.58;;;7.60;69.50;;;;;;5015516;28;20223;-63
2022/03/05 02:28:48;;;;;;;34.97;19.67;;;7.50;69.70;;;;;;5016359;28;20508;-61
2022/03/05 02:31:13;;;;;;;30.27;17.33;;;7.50;69.40;;;;;;5015213;28;20045;-61
2022/03/05 02:33:39;;;;;;;37.35;17.98;;;7.50;69.30;;;;;;5015450;28;20041;-63
2022/03/05 02:36:06;;;;;;;47.55;19.00;;;7.50;69.20;;;;;;5000437;28;20057;-60
2022/03/05 02:38:31;;;;;;;39.88;17.23;;;7.50;69.50;;;;;;5019241;28;20108;-62
2022/03/05 02:40:57;;;;;;;38.83;18.33;;;7.40;69.20;;;;;;5001192;28;20451;-62
2022/03/05 02:43:22;;;;;;;45.60;18.92;;;7.40;69.20;;;;;;5017859;28;20041;-60
2022/03/05 02:45:51;;;;;;;47.88;18.85;;;7.40;69.30;;;;;;5022503;28;20357;-61
2022/03/05 02:48:17;;;;;;;47.10;18.95;;;7.40;69.30;;;;;;5006706;28;20021;-61
2022/03/05 02:50:43;;;;;;;45.08;18.38;;;7.30;69.30;;;;;;5005524;28;20496;-62
2022/03/05 02:53:08;;;;;;;49.70;18.85;;;7.30;69.50;;;;;;5005764;28;20026;-60
2022/03/05 02:55:34;;;;;;;39.42;18.38;;;7.30;69.50;;;;;;5005815;28;20588;-65
2022/03/05 02:57:59;;;;;;;45.20;18.98;;;7.30;69.40;;;;;;5020949;28;20049;-62
2022/03/05 03:00:25;;;;;;;40.47;16.75;;;7.30;69.30;;;;;;5019819;28;20033;-61
2022/03/05 03:02:51;;;;;;;44.97;16.48;;;7.20;69.40;;;;;;5021287;28;20365;-63
2022/03/05 03:05:16;;;;;;;49.08;17.23;;;7.30;69.50;;;;;;5020412;28;20482;-64
2022/03/05 03:07:42;;;;;;;34.25;17.58;;;7.20;69.30;;;;;;5005244;28;20029;-62
2022/03/05 03:10:08;;;;;;;39.20;17.33;;;7.20;69.40;;;;;;5005568;28;20068;-64
2022/03/05 03:12:33;;;;;;;34.40;16.58;;;7.20;69.30;;;;;;5002611;28;20081;-62
2022/03/05 03:14:59;;;;;;;38.85;17.50;;;7.20;69.10;;;;;;5022262;28;20026;-63
2022/03/05 03:17:24;;;;;;;36.25;17.10;;;7.20;69.20;;;;;;5005193;28;20250;-61
2022/03/05 03:19:50;;;;;;;40.75;17.90;;;7.10;69.10;;;;;;5019982;28;20041;-60
2022/03/05 03:22:16;;;;;;;29.52;16.08;;;7.10;69.20;;;;;;5022704;28;20037;-59
2022/03/05 03:24:42;;;;;;;36.28;15.80;;;7.10;69.40;;;;;;5005543;28;20223;-61
2022/03/05 03:27:08;;;;;;;34.80;16.40;;;7.10;69.30;;;;;;5004302;28;20060;-62
2022/03/05 03:29:33;;;;;;;39.05;17.13;;;7.10;69.20;;;;;;5019991;28;20048;-61
2022/03/05 03:31:59;;;;;;;38.70;17.60;;;7.10;69.30;;;;;;5020289;28;20095;-62
2022/03/05 03:34:24;;;;;;;49.20;17.02;;;7.00;69.30;;;;;;5019578;28;20026;-61
2022/03/05 03:36:50;;;;;;;37.22;16.75;;;7.00;69.40;;;;;;5020883;28;20044;-62
2022/03/05 03:39:16;;;;;;;36.53;18.27;;;7.00;69.40;;;;;;5020198;28;20048;-61
2022/03/05 03:41:42;;;;;;;31.90;17.00;;;7.00;69.30;;;;;;5021877;28;20026;-60
2022/03/05 03:44:07;;;;;;;36.40;17.15;;;7.00;70.10;;;;;;5020860;28;20032;-60
2022/03/05 03:46:33;;;;;;;39.25;16.73;;;6.90;69.30;;;;;;5003547;28;20033;-61
2022/03/05 03:48:59;;;;;;;32.13;17.42;;;6.90;69.10;;;;;;5020279;28;20127;-62
2022/03/05 03:51:24;;;;;;;30.98;15.55;;;6.90;69.20;;;;;;5020380;28;20049;-63
2022/03/05 03:53:50;;;;;;;29.85;15.88;;;6.80;69.20;;;;;;5021765;28;20084;-61
2022/03/05 03:56:15;;;;;;;34.47;16.00;;;6.80;69.20;;;;;;5023524;28;20108;-61
2022/03/05 03:58:41;;;;;;;32.42;16.20;;;6.80;69.20;;;;;;5018212;28;20478;-60
2022/03/05 04:01:06;;;;;;;28.38;15.18;;;6.80;69.30;;;;;;5002010;28;20040;-60
2022/03/05 04:03:32;;;;;;;35.00;16.42;;;6.80;69.30;;;;;;5019068;28;20060;-63
2022/03/05 04:05:57;;;;;;;29.73;15.27;;;6.80;69.30;;;;;;5019338;28;20037;-63
2022/03/05 04:08:41;;;;;;;30.13;16.00;;;6.80;69.30;;;;;;5020844;28;20112;-61
2022/03/05 04:11:08;;;;;;;34.60;17.10;;;6.70;69.40;;;;;;5019856;28;20079;-63
2022/03/05 04:13:33;;;;;;;34.30;16.50;;;6.70;69.30;;;;;;5019894;28;20358;-61
2022/03/05 04:15:59;;;;;;;33.15;15.63;;;6.70;69.40;;;;;;5021794;28;20115;-62
2022/03/05 04:18:24;;;;;;;38.35;16.42;;;6.70;69.40;;;;;;5022652;28;20065;-62
2022/03/05 04:20:50;;;;;;;37.20;17.25;;;6.60;69.30;;;;;;5020652;28;20379;-61
2022/03/05 04:23:15;;;;;;;33.78;17.40;;;6.60;69.30;;;;;;5022051;28;20561;-60
2022/03/05 04:25:41;;;;;;;39.45;17.15;;;6.60;69.30;;;;;;5023735;28;20090;-61
2022/03/05 04:28:06;;;;;;;28.45;15.38;;;6.60;69.30;;;;;;5022082;28;20041;-59
2022/03/05 04:30:32;;;;;;;31.33;16.63;;;6.60;69.40;;;;;;5021453;28;20073;-63
2022/03/05 04:32:58;;;;;;;33.03;16.02;;;6.60;69.40;;;;;;5021550;28;20068;-62
2022/03/05 04:35:23;;;;;;;33.22;16.95;;;6.50;69.30;;;;;;5020418;28;20037;-61
2022/03/05 04:37:51;;;;;;;38.03;16.15;;;6.50;69.40;;;;;;5016949;28;20061;-60
2022/03/05 04:40:17;;;;;;;26.13;15.95;;;6.50;69.30;;;;;;5018132;28;20040;-61
2022/03/05 04:42:42;;;;;;;38.33;16.10;;;6.50;69.40;;;;;;4999972;28;20033;-60
2022/03/05 04:45:08;;;;;;;32.22;16.15;;;6.50;70.10;;;;;;5020378;28;20389;-63
2022/03/05 04:47:34;;;;;;;33.45;17.27;;;6.50;69.40;;;;;;5004172;28;20537;-61
2022/03/05 04:50:00;;;;;;;32.58;15.80;;;6.50;69.30;;;;;;5017526;28;20480;-61
2022/03/05 04:52:25;;;;;;;29.50;15.27;;;6.40;69.30;;;;;;5020365;28;20128;-60
2022/03/05 04:54:51;;;;;;;28.00;15.85;;;6.40;69.40;;;;;;5018880;28;20540;-60
2022/03/05 04:57:17;;;;;;;34.25;15.80;;;6.40;69.40;;;;;;5018156;28;20037;-60
2022/03/05 04:59:42;;;;;;;26.58;16.00;;;6.40;69.40;;;;;;5018444;28;20032;-64
2022/03/05 05:02:08;;;;;;;36.22;15.85;;;6.40;69.30;;;;;;5019363;28;20369;-60
2022/03/05 05:04:33;;;;;;;27.48;15.82;;;6.40;69.30;;;;;;5018684;28;20374;-62
2022/03/05 05:06:59;;;;;;;32.00;14.77;;;6.30;69.30;;;;;;5019741;28;20436;-61
2022/03/05 05:09:24;;;;;;;30.88;15.18;;;6.30;69.30;;;;;;5018318;28;20087;-60
2022/03/05 05:11:50;;;;;;;29.70;15.45;;;6.30;69.40;;;;;;5018625;28;20048;-61
2022/03/05 05:14:15;;;;;;;29.33;15.73;;;6.30;69.30;;;;;;5016847;28;20348;-62
2022/03/05 05:16:41;;;;;;;30.27;14.85;;;6.30;69.40;;;;;;5017658;28;20168;-62
2022/03/05 05:22:04;;;;;;;28.55;14.20;;;6.20;69.50;;;;;;5019126;28;20444;-60
2022/03/05 05:24:31;;;;;;;28.00;14.32;;;6.20;69.50;;;;;;5019582;28;20061;-62
2022/03/05 05:26:57;;;;;;;24.95;13.90;;;6.20;69.50;;;;;;5018895;28;20500;-63
2022/03/05 05:29:23;;;;;;;23.45;14.35;;;6.20;69.60;;;;;;5020665;28;20025;-61
2022/03/05 05:31:48;;;;;;;23.88;14.63;;;6.20;69.50;;;;;;5017982;28;20973;-61
2022/03/05 05:34:14;;;;;;;28.75;14.45;;;6.10;69.50;;;;;;5018157;28;20049;-60
2022/03/05 05:36:40;;;;;;;25.95;14.18;;;6.10;69.60;;;;;;5019063;28;20043;-62
2022/03/05 05:39:06;;;;;;;25.90;14.35;;;6.10;69.70;;;;;;5019722;28;20528;-63
2022/03/05 05:41:33;;;;;;;27.23;14.15;;;6.10;69.70;;;;;;5019683;28;20040;-62
2022/03/05 05:43:58;;;;;;;21.58;14.18;;;6.00;69.70;;;;;;5018732;28;20041;-62
2022/03/05 05:46:24;;;;;;;28.90;14.20;;;6.00;69.80;;;;;;5020348;28;20383;-61
2022/03/05 05:48:49;;;;;;;25.48;13.88;;;6.00;69.80;;;;;;5019373;28;20485;-63
2022/03/05 05:51:15;;;;;;;27.27;15.18;;;6.00;69.80;;;;;;5000084;28;20120;-62
2022/03/05 05:53:40;;;;;;;28.23;13.48;;;6.00;69.90;;;;;;5016792;28;20037;-62
2022/03/05 05:56:06;;;;;;;27.30;13.57;;;6.00;69.90;;;;;;5017862;28;20045;-59
2022/03/05 05:58:31;;;;;;;27.00;14.32;;;6.00;69.90;;;;;;5016452;28;20051;-60
2022/03/05 06:00:57;;;;;;;34.30;14.63;;;6.00;69.90;;;;;;5016849;28;20039;-62
2022/03/05 06:03:22;;;;;;;33.42;14.43;;;6.00;69.90;;;;;;5018770;28;20469;-62
2022/03/05 06:05:48;;;;;;;28.00;14.10;;;6.00;70.00;;;;;;5019106;28;20037;-60
2022/03/05 06:08:13;;;;;;;37.28;15.48;;;6.00;70.00;;;;;;5018191;28;20045;-62
2022/03/05 06:10:39;;;;;;;64.60;17.02;;;6.00;70.20;;;;;;5017626;28;20029;-62
2022/03/05 06:13:04;;;;;;;54.83;15.90;;;5.90;70.30;;;;;;5016344;28;20104;-61
2022/03/05 06:15:30;;;;;;;40.63;15.23;;;5.90;70.20;;;;;;5016708;28;20108;-63
2022/03/05 06:17:57;;;;;;;35.08;14.50;;;5.90;70.90;;;;;;5016712;28;20113;-60
2022/03/05 06:20:22;;;;;;;40.28;14.82;;;5.90;70.20;;;;;;5016933;28;20563;-62
2022/03/05 06:22:48;;;;;;;43.90;14.70;;;5.90;70.30;;;;;;5017573;28;20105;-61
2022/03/05 06:25:14;;;;;;;37.20;14.82;;;5.90;70.30;;;;;;5019736;28;20083;-61
2022/03/05 06:27:39;;;;;;;45.53;14.88;;;5.90;71.00;;;;;;5015473;28;20030;-61
2022/03/05 06:30:05;;;;;;;49.17;15.43;;;5.90;70.30;;;;;;4980551;28;1036934;-61
2022/03/05 06:32:31;;;;;;;36.05;14.75;;;5.90;70.20;;;;;;5002147;28;21207;-60
2022/03/05 06:34:56;;;;;;;37.42;15.05;;;5.90;70.30;;;;;;5001193;28;20033;-61
2022/03/05 06:37:22;;;;;;;37.47;13.73;;;5.80;70.60;;;;;;5019127;28;20068;-61
2022/03/05 06:39:48;;;;;;;34.33;14.05;;;5.80;70.70;;;;;;5020814;28;20041;-61
2022/03/05 06:42:14;;;;;;;44.17;13.73;;;5.80;70.80;;;;;;5018253;28;20044;-61
2022/03/05 06:44:40;;;;;;;42.97;15.10;;;5.80;71.00;;;;;;5017944;28;20121;-61
2022/03/05 06:47:06;;;;;;;36.80;13.63;;;5.80;71.20;;;;;;5017122;28;20867;-63
2022/03/05 06:49:31;;;;;;;49.53;13.70;;;5.80;71.10;;;;;;5019171;28;20025;-62
2022/03/05 06:51:58;;;;;;;32.70;14.40;;;5.80;71.00;;;;;;5017974;28;20126;-63
2022/03/05 06:54:24;;;;;;;38.63;13.98;;;5.80;71.30;;;;;;5018762;28;20029;-63
2022/03/05 06:56:49;;;;;;;41.05;14.93;;;5.80;71.30;;;;;;5016948;28;20362;-60
2022/03/05 06:59:15;;;;;;;30.40;13.23;;;5.70;71.20;;;;;;5018149;28;20034;-61
2022/03/05 07:01:41;;;;;;;34.90;13.05;;;5.80;71.40;;;;;;5018929;28;20061;-63
2022/03/05 07:04:06;;;;;;;34.53;13.60;;;5.70;71.30;;;;;;5016933;28;20509;-62
2022/03/05 07:06:32;;;;;;;33.78;13.18;;;5.70;71.30;;;;;;5018656;28;20117;-64
2022/03/05 07:08:57;;;;;;;30.73;12.65;;;5.70;71.40;;;;;;5018912;28;20361;-60
2022/03/05 07:11:23;;;;;;;29.45;13.57;;;5.70;71.20;;;;;;5017912;28;20112;-61
2022/03/05 07:13:48;;;;;;;34.90;13.63;;;5.70;71.30;;;;;;5015940;28;20377;-60
2022/03/05 07:16:14;;;;;;;33.60;12.98;;;5.70;71.30;;;;;;5015541;28;20502;-63
2022/03/05 07:18:40;;;;;;;43.47;14.07;;;5.70;71.40;;;;;;5018184;28;21681;-61
2022/03/05 07:21:05;;;;;;;25.05;12.80;;;5.70;71.30;;;;;;5014392;28;20037;-62
2022/03/05 07:23:31;;;;;;;26.23;12.38;;;5.70;71.20;;;;;;5016221;28;20431;-61
2022/03/05 07:25:57;;;;;;;33.53;12.52;;;5.60;71.10;;;;;;5013539;28;20041;-62
2022/03/05 07:28:22;;;;;;;29.58;12.63;;;5.70;71.20;;;;;;5016333;28;20025;-61
2022/03/05 07:30:48;;;;;;;31.77;12.93;;;5.60;71.10;;;;;;5017303;28;20046;-62
2022/03/05 07:33:13;;;;;;;26.10;12.60;;;5.70;71.10;;;;;;5020738;28;20033;-62
2022/03/05 07:35:39;;;;;;;33.35;12.93;;;5.70;71.20;;;;;;5019090;28;20160;-61
2022/03/05 07:38:04;;;;;;;30.42;12.48;;;5.60;71.10;;;;;;5020950;28;20042;-62
2022/03/05 07:40:30;;;;;;;25.88;12.10;;;5.60;71.10;;;;;;5022518;28;20029;-63
2022/03/05 07:42:55;;;;;;;23.83;11.63;;;5.60;71.20;;;;;;5021397;28;20406;-62
2022/03/05 07:45:21;;;;;;;23.08;11.77;;;5.60;71.30;;;;;;5020120;28;20033;-61
2022/03/05 07:47:47;;;;;;;24.00;12.13;;;5.60;71.30;;;;;;5020562;28;20047;-63
2022/03/05 07:50:12;;;;;;;25.02;12.07;;;5.60;71.50;;;;;;5021548;28;20384;-62
2022/03/05 07:52:38;;;;;;;31.23;12.77;;;5.80;71.70;;;;;;5004261;28;20041;-62
2022/03/05 07:55:04;;;;;;;21.48;12.00;;;5.50;71.60;;;;;;5021835;28;20092;-62
2022/03/05 07:57:31;;;;;;;24.60;11.57;;;5.50;71.60;;;;;;5021016;28;20038;-60
2022/03/05 07:59:57;;;;;;;25.63;11.45;;;5.50;71.60;;;;;;5019992;28;20037;-61
2022/03/05 08:02:22;;;;;;;20.98;11.25;;;5.50;71.50;;;;;;5020548;28;20525;-61
2022/03/05 08:04:49;;;;;;;23.58;11.90;;;5.50;71.40;;;;;;5021050;28;20044;-63
2022/03/05 08:07:15;;;;;;;20.95;11.60;;;5.50;71.30;;;;;;5023557;28;20376;-62
2022/03/05 08:09:43;;;;;;;21.80;10.70;;;5.50;71.30;;;;;;5019871;28;20018;-62
2022/03/05 08:12:09;;;;;;;16.92;11.15;;;5.50;71.30;;;;;;5021058;28;20029;-63
2022/03/05 08:14:35;;;;;;;25.42;10.98;;;5.50;71.20;;;;;;5019146;28;20064;-61
2022/03/05 08:17:01;;;;;;;19.92;11.05;;;5.40;70.90;;;;;;5020222;28;20075;-61
2022/03/05 08:19:26;;;;;;;28.77;10.05;;;5.40;71.00;;;;;;5022344;28;20448;-63
2022/03/05 08:21:52;;;;;;;17.00;10.63;;;5.50;71.00;;;;;;5020957;28;20496;-62
2022/03/05 08:24:18;;;;;;;23.08;10.43;;;5.40;70.80;;;;;;5020816;28;20445;-61
2022/03/05 08:26:43;;;;;;;26.42;9.93;;;5.40;70.70;;;;;;5020905;28;20511;-62
2022/03/05 08:29:09;;;;;;;23.30;11.45;;;5.40;70.70;;;;;;5019350;28;20045;-61
2022/03/05 08:31:34;;;;;;;17.90;9.23;;;5.40;70.60;;;;;;5003485;28;20042;-60
2022/03/05 08:34:01;;;;;;;14.70;9.75;;;5.40;70.50;;;;;;5022464;28;20328;-63
2022/03/05 08:36:27;;;;;;;19.88;9.48;;;5.60;70.50;;;;;;5020796;28;20013;-64
2022/03/05 08:38:53;;;;;;;19.63;10.10;;;5.40;70.30;;;;;;5022586;28;20075;-60
2022/03/05 08:41:18;;;;;;;14.98;9.50;;;5.30;70.20;;;;;;5020973;28;20547;-61
2022/03/05 08:43:44;;;;;;;17.88;10.65;;;5.40;70.20;;;;;;5019108;28;20191;-63
2022/03/05 08:46:09;;;;;;;16.13;9.48;;;5.40;70.10;;;;;;5021872;28;20087;-61
2022/03/05 08:48:35;;;;;;;17.98;10.45;;;5.40;70.10;;;;;;5023148;28;20144;-61
2022/03/05 08:51:00;;;;;;;16.85;10.23;;;5.40;70.00;;;;;;5020546;28;20094;-62
2022/03/05 08:53:26;;;;;;;13.88;8.57;;;5.30;69.80;;;;;;5024429;28;20095;-62
2022/03/05 08:55:51;;;;;;;20.80;9.98;;;5.40;69.80;;;;;;5023323;28;20044;-62
2022/03/05 08:58:17;;;;;;;13.02;9.35;;;5.40;69.70;;;;;;5020073;28;20057;-63
2022/03/05 09:00:43;;;;;;;13.93;8.88;;;5.40;69.70;;;;;;5020400;28;20113;-61
2022/03/05 09:03:08;;;;;;;17.55;8.85;;;5.40;69.60;;;;;;5018722;28;20033;-62
2022/03/05 09:05:34;;;;;;;16.70;10.15;;;5.40;69.60;;;;;;5021166;28;20345;-63
2022/03/05 09:07:59;;;;;;;15.05;9.20;;;5.40;69.50;;;;;;5017620;28;20038;-62
2022/03/05 09:10:25;;;;;;;17.70;9.10;;;5.40;69.60;;;;;;5012195;28;20045;-62
2022/03/05 09:12:50;;;;;;;22.30;8.95;;;5.40;69.70;;;;;;5015729;28;20038;-61
2022/03/05 09:15:16;;;;;;;21.85;9.55;;;5.40;69.70;;;;;;5014145;28;20033;-61
2022/03/05 09:17:42;;;;;;;13.20;8.77;;;5.40;69.70;;;;;;5019353;28;20084;-61
2022/03/05 09:20:10;;;;;;;13.50;9.02;;;5.40;69.60;;;;;;5020451;28;20022;-61
2022/03/05 09:22:36;;;;;;;14.80;9.05;;;5.40;69.60;;;;;;5002699;28;20022;-62
2022/03/05 09:25:01;;;;;;;14.27;8.77;;;5.40;69.70;;;;;;5020276;28;20040;-61
2022/03/05 09:27:27;;;;;;;17.15;9.73;;;5.40;69.60;;;;;;5011322;28;20102;-62
2022/03/05 09:29:52;;;;;;;21.13;9.63;;;5.40;69.70;;;;;;5022535;28;20104;-61
2022/03/05 09:32:18;;;;;;;23.67;9.95;;;5.40;69.70;;;;;;5021047;28;20043;-63
2022/03/05 09:34:43;;;;;;;25.20;10.05;;;5.50;69.60;;;;;;5016323;28;20485;-61
2022/03/05 09:37:09;;;;;;;27.05;10.38;;;5.50;69.60;;;;;;5005735;28;20072;-60
2022/03/05 09:39:36;;;;;;;18.52;9.65;;;5.50;70.30;;;;;;5023279;28;20017;-62
2022/03/05 09:42:02;;;;;;;23.40;9.80;;;5.50;69.70;;;;;;5022608;28;20116;-62
2022/03/05 09:44:27;;;;;;;28.05;10.68;;;5.50;69.80;;;;;;5016831;28;20034;-62
2022/03/05 09:46:53;;;;;;;36.20;11.45;;;5.50;69.90;;;;;;4998943;28;20030;-60
2022/03/05 09:49:19;;;;;;;47.58;11.65;;;5.60;70.40;;;;;;5001983;28;20017;-62
2022/03/05 09:51:44;;;;;;;31.27;11.25;;;5.60;70.30;;;;;;5000476;28;20132;-61
2022/03/05 09:54:10;;;;;;;51.45;14.82;;;5.60;70.40;;;;;;5014978;28;20041;-61
2022/03/05 09:56:36;;;;;;;49.33;13.50;;;5.70;70.50;;;;;;5016785;28;20036;-61
2022/03/05 09:59:02;;;;;;;50.95;13.20;;;5.70;70.60;;;;;;5020601;28;20029;-61
2022/03/05 10:01:28;;;;;;;74.85;13.82;;;5.70;70.70;;;;;;5004389;28;20029;-61
2022/03/05 10:03:54;;;;;;;75.57;14.18;;;5.70;70.70;;;;;;5019790;28;20339;-62
2022/03/05 10:06:20;;;;;;;56.83;13.32;;;5.80;70.90;;;;;;5015555;28;20737;-61
2022/03/05 10:08:46;;;;;;;61.92;11.27;;;5.80;70.90;;;;;;5018226;28;20025;-61
2022/03/05 10:11:12;;;;;;;58.83;12.60;;;5.80;70.80;;;;;;5013037;28;20535;-62
2022/03/05 10:13:38;;;;;;;56.20;13.23;;;5.80;70.90;;;;;;5009795;28;20033;-61
2022/03/05 10:16:06;;;;;;;63.22;14.68;;;5.90;71.00;;;;;;4994849;28;20041;-61
2022/03/05 10:18:33;;;;;;;63.38;13.85;;;5.90;71.10;;;;;;5013637;28;20087;-61
2022/03/05 10:21:00;;;;;;;70.82;15.45;;;5.90;71.10;;;;;;4995800;28;20033;-62
2022/03/05 10:23:26;;;;;;;57.40;14.82;;;6.00;71.30;;;;;;5013033;28;20059;-63
2022/03/05 10:25:52;;;;;;;76.13;15.30;;;6.00;71.20;;;;;;5013014;28;20595;-63
2022/03/05 10:28:23;;;;;;;68.10;14.65;;;6.10;71.40;;;;;;5009917;28;20033;-62
2022/03/05 10:30:50;;;;;;;109.97;17.77;;;6.10;71.30;;;;;;5013981;28;20044;-62
2022/03/05 10:33:47;;;;;;;107.97;17.83;;;6.10;71.20;;;;;;5012208;28;20044;-63
2022/03/05 10:36:19;;;;;;;92.20;16.70;;;6.10;71.50;;;;;;5011732;28;20038;-62
2022/03/05 10:38:53;;;;;;;90.50;17.92;;;6.20;71.80;;;;;;5014075;28;20033;-61
2022/03/05 10:41:32;;;;;;;74.38;16.73;;;6.20;71.70;;;;;;4996673;28;20120;-62
2022/03/05 10:44:15;;;;;;;150.95;23.52;;;6.30;71.60;;;;;;4981947;28;20037;-63
2022/03/05 10:46:57;;;;;;;131.10;22.23;;;6.20;71.60;;;;;;5014758;28;20061;-61
2022/03/05 10:49:37;;;;;;;140.82;21.15;;;6.30;71.60;;;;;;5014250;28;20068;-63
2022/03/05 10:52:02;;;;;;;113.40;21.13;;;6.30;71.80;;;;;;5001527;28;20065;-63
2022/03/05 10:54:39;;;;;;;164.18;23.85;;;6.30;71.70;;;;;;5016190;28;20117;-62
2022/03/05 10:57:10;;;;;;;149.38;22.17;;;6.30;72.00;;;;;;5014918;28;20645;-62
2022/03/05 10:59:40;;;;;;;143.48;21.13;;;6.30;71.60;;;;;;5012920;28;20014;-62
2022/03/05 11:02:07;;;;;;;149.98;23.80;;;6.40;71.60;;;;;;5031266;28;20568;-60
2022/03/05 11:04:35;;;;;;;157.70;23.27;;;6.20;71.50;;;;;;5014851;28;20064;-62
2022/03/05 11:07:00;;;;;;;132.90;22.50;;;6.40;71.50;;;;;;4999659;28;20033;-63
2022/03/05 11:09:26;;;;;;;141.60;24.60;;;6.40;71.50;;;;;;5019294;28;20096;-62
2022/03/05 11:11:51;;;;;;;106.70;21.38;;;6.40;71.50;;;;;;5003479;28;20099;-61
2022/03/05 11:14:17;;;;;;;155.02;22.98;;;6.50;71.30;;;;;;5003293;28;20175;-63
2022/03/05 11:16:44;;;;;;;121.43;22.02;;;6.50;71.20;;;;;;5019646;28;20033;-62
2022/03/05 11:19:10;;;;;;;158.27;22.67;;;6.50;71.20;;;;;;5019434;28;20539;-62
2022/03/05 11:21:36;;;;;;;148.20;22.08;;;6.50;71.20;;;;;;5018512;28;20055;-61
2022/03/05 11:24:01;;;;;;;124.95;21.92;;;6.50;71.40;;;;;;5023612;28;20269;-61
2022/03/05 11:26:30;;;;;;;153.68;21.98;;;6.50;71.40;;;;;;5021766;28;20042;-64
2022/03/05 11:28:56;;;;;;;158.70;24.83;;;6.60;71.40;;;;;;5021908;28;20370;-62
2022/03/05 11:31:30;;;;;;;140.98;25.35;;;6.60;71.30;;;;;;5020653;28;20046;-60
2022/03/05 11:33:55;;;;;;;159.60;24.45;;;6.60;71.00;;;;;;5020647;28;20487;-62
2022/03/05 11:36:25;;;;;;;149.82;22.77;;;6.60;71.00;;;;;;5020806;28;20033;-62
2022/03/05 11:39:13;;;;;;;123.80;23.35;;;6.60;70.90;;;;;;5019364;28;20025;-63
2022/03/05 11:41:48;;;;;;;142.82;22.40;;;6.70;70.90;;;;;;5020180;28;20036;-61
2022/03/05 11:44:14;;;;;;;165.25;26.30;;;6.70;70.80;;;;;;5016691;28;20029;-61
2022/03/05 11:46:40;;;;;;;145.70;23.35;;;6.70;70.70;;;;;;4999642;28;20028;-62
2022/03/05 11:49:10;;;;;;;112.97;21.95;;;6.70;70.60;;;;;;5003502;28;20037;-62
2022/03/05 11:51:56;;;;;;;123.80;22.08;;;6.70;70.30;;;;;;5019413;28;20049;-62
2022/03/05 11:54:22;;;;;;;110.70;20.95;;;6.80;70.30;;;;;;5018116;28;20030;-60
2022/03/05 11:57:14;;;;;;;112.75;21.35;;;6.80;70.10;;;;;;5003168;28;20369;-62
2022/03/05 11:59:40;;;;;;;117.03;22.05;;;6.80;70.00;;;;;;5022102;28;20109;-61
2022/03/05 12:02:06;;;;;;;186.70;30.40;;;6.90;70.00;;;;;;5018177;28;20060;-61
2022/03/05 12:04:31;;;;;;;143.05;26.17;;;6.90;69.90;;;;;;5015995;28;20456;-62
2022/03/05 12:07:22;;;;;;;118.45;22.23;;;6.90;70.10;;;;;;4992860;28;20507;-61
2022/03/05 12:09:53;;;;;;;110.38;21.20;;;6.90;69.90;;;;;;5017915;28;20290;-62
2022/03/05 12:12:19;;;;;;;120.38;20.33;;;6.90;69.80;;;;;;5028117;28;20053;-61
2022/03/05 12:15:04;;;;;;;127.47;21.17;;;7.00;69.50;;;;;;4993786;28;20060;-62
2022/03/05 12:17:34;;;;;;;106.30;19.50;;;7.00;69.30;;;;;;5019154;28;20065;-61
2022/03/05 12:20:00;;;;;;;113.93;20.85;;;7.00;69.10;;;;;;5018701;28;20311;-62
2022/03/05 12:22:25;;;;;;;118.90;19.52;;;7.10;69.50;;;;;;5021076;28;20307;-63
2022/03/05 12:24:51;;;;;;;121.65;20.30;;;7.10;69.50;;;;;;5018352;28;20033;-61
2022/03/05 12:27:17;;;;;;;108.68;20.27;;;7.00;69.20;;;;;;5018220;28;20040;-62
2022/03/05 12:29:47;;;;;;;113.20;21.15;;;7.20;69.40;;;;;;4994124;28;20041;-61
2022/03/05 12:32:16;;;;;;;145.18;23.63;;;7.20;69.50;;;;;;4985229;28;20044;-63
2022/03/05 12:34:41;;;;;;;109.78;20.27;;;7.20;69.60;;;;;;5018778;28;20507;-60